Ana Sayfa
METAR-TAF:

METAR-TAF

Havaalanları :

Natchitoches Regional Airport

Natchitoches, Louisiana, Amerika Birleşik Devletleri

Enlem: 31-44-09N, Boylam: 093-05-57W, yükseklik: 37 m

Güncel hava durumu gözlemi

Rapor saat 09:35 UTC de 23 dakika önce yapıldı.
Sakin rüzgar
Sıcaklık 20°C
Nem 100%
Basınç 1013 hPa
Görüş mesafesi: 6.4 km
200 ft yükseklikte parçalı bulutlu
Pus

METAR: KIER 180935Z AUTO 00000KT 4SM BR SCT002 20/20 A2991 RMK AO2 T02030202

Saat: 04:58 (09:58 UTC)


TAF: eksik

4.000'den fazla havaalanı için hava durumu gözlemleri ve tahminleri (METAR ve TAF raporları).

Kullanılabilir istasyonlar harita üzerinde sarı ve kırmızı noktalarla gösterilir.

İstasyonun adını görmek için fareyi noktanın üzerinde gezdirin.

Sonrasında hava gözlem ve tahminlerini görmek için tıklayın.

Haritayı değiştirmek için: yaklaştırmak için siyah artı işaretli yeşil düğmeye ve uzaklaştırmak için de eksi işaretli düğmeye hızla tıklayın; bitişik haritalar için yeşil okları kullanın.


METAR-TAF: